Villanueva de La Serena, Spain
Current Conditions -  °F | °C
As of 7:00 PM on Friday 19 Dec 2014 (Local Time) from LEBZ Reporting Station
Overcast Overcast  
Wind Chill: 45°   Ceiling: 900
Heat Index: 45°   Visibility: 6mi
Dew Point: 41°   Wind: 2mph
Humidity: 87%   Direction: NA
Pressure: 30.48"   Gusts: NA
Location:  38.97°N, 5.8°W
Report Text: LEBZ 191800Z VRB02KT 9999 OVC009 07/05 Q1032
Loading
Personal Weather Stations






























Interactive Weather Map New forecast layout! Learn more

10-Day Weather Forecast

Advertisements
Track Severe Weather on mobile